createdAt,value
2023-03-21T00:01:17.147Z,8.32
2023-03-21T00:04:50.799Z,9.10
2023-03-21T00:08:15.848Z,9.85
2023-03-21T00:11:37.769Z,10.27
2023-03-21T00:15:06.200Z,9.57
2023-03-21T00:18:28.848Z,9.32
2023-03-21T00:22:06.491Z,8.82
2023-03-21T00:25:30.154Z,8.65
2023-03-21T00:28:52.266Z,7.15
2023-03-21T00:32:14.202Z,7.65
2023-03-21T00:35:57.886Z,10.07
2023-03-21T00:39:17.427Z,9.57
2023-03-21T00:42:40.721Z,6.88
2023-03-21T00:46:03.114Z,10.20
2023-03-21T00:49:25.322Z,7.30
2023-03-21T00:52:47.278Z,8.32
2023-03-21T00:56:10.081Z,7.30
2023-03-21T00:59:33.632Z,6.45
2023-03-21T01:03:04.420Z,9.38
2023-03-21T01:06:30.542Z,6.95
2023-03-21T01:09:52.574Z,8.18
2023-03-21T01:13:16.626Z,6.55
2023-03-21T01:16:40.274Z,11.65
2023-03-21T01:20:01.846Z,7.15
2023-03-21T01:23:27.372Z,6.10
2023-03-21T01:26:49.221Z,6.80
2023-03-21T01:30:20.264Z,6.13
2023-03-21T01:33:46.319Z,5.50
2023-03-21T01:37:08.367Z,4.90
2023-03-21T01:40:31.720Z,6.05
2023-03-21T01:43:53.799Z,5.90
2023-03-21T01:47:15.558Z,5.15
2023-03-21T01:50:40.074Z,5.95
2023-03-21T01:54:02.437Z,6.22
2023-03-21T01:57:41.025Z,5.03
2023-03-21T02:01:06.637Z,6.85
2023-03-21T02:04:30.468Z,5.38
2023-03-21T02:07:53.922Z,5.85
2023-03-21T02:11:17.045Z,6.30
2023-03-21T02:14:40.906Z,5.80
2023-03-21T02:18:09.338Z,5.50
2023-03-21T02:22:12.885Z,7.05
2023-03-21T02:25:56.481Z,6.25
2023-03-21T02:29:38.528Z,5.20
2023-03-21T02:33:21.705Z,4.25
2023-03-21T02:36:53.282Z,5.40
2023-03-21T02:40:21.378Z,6.50
2023-03-21T02:43:48.703Z,4.95
2023-03-21T02:47:15.040Z,5.40
2023-03-21T02:50:42.014Z,6.00
2023-03-21T02:54:28.285Z,5.85
2023-03-21T02:57:54.308Z,4.78
2023-03-21T03:01:16.264Z,5.70
2023-03-21T03:04:38.398Z,6.20
2023-03-21T03:08:12.878Z,5.22
2023-03-21T03:11:38.511Z,5.70
2023-03-21T03:15:10.023Z,5.10
2023-03-21T03:18:40.011Z,6.20
2023-03-21T03:22:07.722Z,5.78
2023-03-21T03:25:42.846Z,5.32
2023-03-21T03:29:09.991Z,5.82
2023-03-21T03:32:37.293Z,5.00
2023-03-21T03:36:06.805Z,5.68
2023-03-21T03:39:34.460Z,5.78
2023-03-21T03:43:00.927Z,4.93
2023-03-21T03:46:29.899Z,5.18
2023-03-21T03:49:57.015Z,5.50
2023-03-21T03:53:24.094Z,4.38
2023-03-21T03:56:47.323Z,4.47
2023-03-21T04:00:13.119Z,4.80
2023-03-21T04:03:48.374Z,5.47
2023-03-21T04:07:12.189Z,4.32
2023-03-21T04:10:34.054Z,5.10
2023-03-21T04:13:55.715Z,3.58
2023-03-21T04:17:18.881Z,4.35
2023-03-21T04:20:45.197Z,4.60
2023-03-21T04:24:08.514Z,4.45
2023-03-21T04:27:30.548Z,5.15
2023-03-21T04:31:02.508Z,4.07
2023-03-21T04:34:28.911Z,4.20
2023-03-21T04:37:52.881Z,4.63
2023-03-21T04:41:15.110Z,4.30
2023-03-21T04:44:37.256Z,5.38
2023-03-21T04:47:59.464Z,5.60
2023-03-21T04:51:21.240Z,5.60
2023-03-21T04:54:44.711Z,4.85
2023-03-21T04:58:07.412Z,4.82
2023-03-21T05:01:30.826Z,4.63
2023-03-21T05:04:52.813Z,4.07
2023-03-21T05:08:15.642Z,4.82
2023-03-21T05:11:41.454Z,5.88
2023-03-21T05:15:03.095Z,6.15
2023-03-21T05:18:26.552Z,5.82
2023-03-21T05:21:48.998Z,8.50
2023-03-21T05:25:11.928Z,11.57
2023-03-21T05:28:37.003Z,4.25
2023-03-21T05:31:59.151Z,4.35
2023-03-21T05:35:21.117Z,4.60
2023-03-21T05:38:46.231Z,4.05
2023-03-21T05:42:08.302Z,4.10
2023-03-21T05:45:31.780Z,3.45
2023-03-21T05:48:53.866Z,2.95
2023-03-21T05:52:15.877Z,3.55
2023-03-21T05:55:38.484Z,3.45
2023-03-21T05:59:00.334Z,2.85
2023-03-21T06:02:23.791Z,3.72
2023-03-21T06:05:45.569Z,3.17
2023-03-21T06:09:08.512Z,3.22
2023-03-21T06:12:30.035Z,3.60
2023-03-21T06:15:51.838Z,2.55
2023-03-21T06:19:15.040Z,2.75
2023-03-21T06:22:37.653Z,2.08
2023-03-21T06:25:59.444Z,1.92
2023-03-21T06:29:21.185Z,2.83
2023-03-21T06:32:43.317Z,2.47
2023-03-21T06:36:06.950Z,3.45
2023-03-21T06:39:29.126Z,5.32
2023-03-21T06:42:50.665Z,3.33
2023-03-21T06:46:12.672Z,3.85
2023-03-21T06:49:34.537Z,2.58
2023-03-21T06:52:59.520Z,2.40
2023-03-21T06:56:21.406Z,25.25
2023-03-21T06:59:43.067Z,17.27
2023-03-21T07:03:04.806Z,8.45
2023-03-21T07:06:28.201Z,4.07
2023-03-21T07:09:51.436Z,4.20
2023-03-21T07:13:13.935Z,2.97
2023-03-21T07:16:35.851Z,2.80
2023-03-21T07:19:58.509Z,4.60
2023-03-21T07:23:21.812Z,3.70
2023-03-21T07:26:45.643Z,3.50
2023-03-21T07:30:08.580Z,2.42
2023-03-21T07:33:30.683Z,2.40
2023-03-21T07:36:52.433Z,2.50
2023-03-21T07:40:14.472Z,2.45
2023-03-21T07:43:39.172Z,2.58
2023-03-21T07:47:01.608Z,3.97
2023-03-21T07:50:23.498Z,4.47
2023-03-21T07:53:48.717Z,2.08
2023-03-21T07:57:13.135Z,1.48
2023-03-21T08:00:36.687Z,1.45
2023-03-21T08:03:58.594Z,1.30
2023-03-21T08:07:20.920Z,2.58
2023-03-21T08:10:44.105Z,1.73
2023-03-21T08:14:06.230Z,1.70
2023-03-21T08:17:29.703Z,2.42
2023-03-21T08:20:53.659Z,1.73
2023-03-21T08:24:15.662Z,1.42
2023-03-21T08:27:37.517Z,1.60
2023-03-21T08:30:59.493Z,1.50
2023-03-21T08:34:23.250Z,1.20
2023-03-21T08:37:45.448Z,1.90
2023-03-21T08:41:07.826Z,2.05
2023-03-21T08:44:29.681Z,2.20
2023-03-21T08:47:51.833Z,2.47
2023-03-21T08:51:15.402Z,2.05
2023-03-21T08:54:37.294Z,2.60
2023-03-21T08:57:59.481Z,3.53
2023-03-21T09:01:21.403Z,3.35
2023-03-21T09:04:43.907Z,1.63
2023-03-21T09:08:07.300Z,1.33
2023-03-21T09:11:29.162Z,1.40
2023-03-21T09:14:50.998Z,1.40
2023-03-21T09:18:16.461Z,1.58
2023-03-21T09:21:38.465Z,0.95
2023-03-21T09:25:08.486Z,1.27
2023-03-21T09:28:31.297Z,2.30
2023-03-21T09:31:54.546Z,2.42
2023-03-21T09:35:18.870Z,2.25
2023-03-21T09:38:40.825Z,2.30
2023-03-21T09:42:21.135Z,1.88
2023-03-21T09:45:52.662Z,9.27
2023-03-21T09:49:20.561Z,1.55
2023-03-21T09:52:48.267Z,2.50
2023-03-21T09:56:14.092Z,1.83
2023-03-21T09:59:40.494Z,1.42
2023-03-21T10:03:07.010Z,2.17
2023-03-21T10:06:30.682Z,1.73
2023-03-21T10:09:53.577Z,1.90
2023-03-21T10:13:20.754Z,2.15
2023-03-21T10:16:46.722Z,2.67
2023-03-21T10:20:15.584Z,1.58
2023-03-21T10:23:37.334Z,4.40
2023-03-21T10:26:59.366Z,3.10
2023-03-21T10:30:29.412Z,1.80
2023-03-21T10:33:54.136Z,2.95
2023-03-21T10:37:17.761Z,2.97
2023-03-21T10:40:39.765Z,2.08
2023-03-21T10:44:11.758Z,1.70
2023-03-21T10:47:35.405Z,2.15
2023-03-21T10:50:58.748Z,1.67
2023-03-21T10:54:23.512Z,1.17
2023-03-21T10:57:46.926Z,1.00
2023-03-21T11:01:14.946Z,2.40
2023-03-21T11:04:38.702Z,3.25
2023-03-21T11:08:05.425Z,8.15
2023-03-21T11:11:29.063Z,3.58
2023-03-21T11:14:51.618Z,2.65
2023-03-21T11:18:20.588Z,3.17
2023-03-21T11:21:42.537Z,4.90
2023-03-21T11:25:09.690Z,1.80
2023-03-21T11:28:37.987Z,5.35
2023-03-21T11:32:02.971Z,4.60
2023-03-21T11:35:26.740Z,4.68
2023-03-21T11:38:51.551Z,5.32
2023-03-21T11:42:29.790Z,2.80
2023-03-21T11:45:58.881Z,2.85
2023-03-21T11:49:21.484Z,2.33
2023-03-21T11:52:50.228Z,6.55
2023-03-21T11:56:26.052Z,1.50
2023-03-21T11:59:57.794Z,2.80
2023-03-21T12:03:49.375Z,1.35
2023-03-21T12:07:26.571Z,2.92
2023-03-21T12:10:56.567Z,1.38
2023-03-21T12:14:26.054Z,1.05
2023-03-21T12:17:59.825Z,0.85
2023-03-21T12:21:27.922Z,1.10
2023-03-21T12:24:55.018Z,1.30
2023-03-21T12:28:33.122Z,0.98
2023-03-21T12:32:12.314Z,1.70
2023-03-21T12:35:48.577Z,1.48
2023-03-21T12:39:22.303Z,2.88
2023-03-21T12:42:59.521Z,1.85
2023-03-21T12:46:28.692Z,1.40
2023-03-21T12:49:55.834Z,1.60
2023-03-21T12:53:31.181Z,1.30
2023-03-21T12:56:58.535Z,0.82
2023-03-21T13:00:24.167Z,0.93
2023-03-21T13:03:51.186Z,4.45
2023-03-21T13:07:20.233Z,1.67
2023-03-21T13:10:45.859Z,2.15
2023-03-21T13:14:16.414Z,0.77
2023-03-21T13:17:45.160Z,1.45
2023-03-21T13:21:15.201Z,6.00
2023-03-21T13:24:43.904Z,1.15
2023-03-21T13:28:07.275Z,0.80
2023-03-21T13:31:33.883Z,1.15
2023-03-21T13:35:14.552Z,2.25
2023-03-21T13:38:42.394Z,1.10
2023-03-21T13:42:07.046Z,1.70
2023-03-21T13:45:33.759Z,1.00
2023-03-21T13:49:01.191Z,0.77
2023-03-21T13:52:29.496Z,1.13
2023-03-21T13:56:11.483Z,1.50
2023-03-21T13:59:42.868Z,0.70
2023-03-21T14:03:14.595Z,2.15
2023-03-21T14:06:42.870Z,0.88
2023-03-21T14:10:07.972Z,1.02
2023-03-21T14:13:33.041Z,1.80
2023-03-21T14:16:57.109Z,0.80
2023-03-21T14:20:24.569Z,0.75
2023-03-21T14:23:46.597Z,0.73
2023-03-21T14:27:10.170Z,27.55
2023-03-21T14:30:35.448Z,11.90
2023-03-21T14:34:00.008Z,13.15
2023-03-21T14:37:32.457Z,11.05
2023-03-21T14:40:56.217Z,10.15
2023-03-21T14:44:25.605Z,15.77
2023-03-21T14:51:17.496Z,3.40
2023-03-21T14:54:43.859Z,1.20
2023-03-21T14:58:06.791Z,0.90
2023-03-21T15:01:32.822Z,2.00
2023-03-21T15:04:58.105Z,1.52
2023-03-21T15:08:21.891Z,1.50
2023-03-21T15:11:51.647Z,1.60
2023-03-21T15:15:17.595Z,2.70
2023-03-21T15:18:42.031Z,1.55
2023-03-21T15:22:12.935Z,0.80
2023-03-21T15:25:37.822Z,1.85
2023-03-21T15:29:02.614Z,1.33
2023-03-21T15:32:27.561Z,2.22
2023-03-21T15:35:54.305Z,1.10
2023-03-21T15:39:19.994Z,1.60
2023-03-21T15:42:43.050Z,1.85
2023-03-21T15:46:15.335Z,0.95
2023-03-21T15:49:41.945Z,1.88
2023-03-21T15:53:07.145Z,1.98
2023-03-21T15:56:35.045Z,1.88
2023-03-21T16:00:00.690Z,1.75
2023-03-21T16:03:27.700Z,1.60
2023-03-21T16:06:55.199Z,2.88
2023-03-21T16:10:28.785Z,2.67
2023-03-21T16:13:51.176Z,3.15
2023-03-21T16:17:27.688Z,3.38
2023-03-21T16:20:51.083Z,3.13
2023-03-21T16:24:13.675Z,4.75
2023-03-21T16:27:35.761Z,6.80
2023-03-21T16:30:59.088Z,8.43
2023-03-21T16:34:20.884Z,6.53
2023-03-21T16:37:45.277Z,4.97
2023-03-21T16:41:10.780Z,5.80
2023-03-21T16:44:33.914Z,5.07
2023-03-21T16:47:56.238Z,3.80
2023-03-21T16:51:20.578Z,3.00
2023-03-21T16:54:44.442Z,3.15
2023-03-21T16:58:06.858Z,4.30
2023-03-21T17:01:30.198Z,5.03
2023-03-21T17:04:52.291Z,5.60
2023-03-21T17:08:17.004Z,4.28
2023-03-21T17:11:41.824Z,4.30
2023-03-21T17:15:04.039Z,5.68
2023-03-21T17:18:25.968Z,6.10
2023-03-21T17:21:47.943Z,10.30
2023-03-21T17:25:09.985Z,10.98
2023-03-21T17:28:33.216Z,11.80
2023-03-21T17:31:55.102Z,14.43
2023-03-21T17:35:17.799Z,17.40
2023-03-21T17:38:39.504Z,18.77
2023-03-21T17:42:01.183Z,13.85
2023-03-21T17:45:24.958Z,11.18
2023-03-21T17:48:47.329Z,9.25
2023-03-21T17:52:09.160Z,15.15
2023-03-21T17:55:31.549Z,16.50
2023-03-21T17:58:53.387Z,14.68
2023-03-21T18:02:18.418Z,13.75
2023-03-21T18:05:40.660Z,11.40
2023-03-21T18:09:08.067Z,9.90
2023-03-21T18:12:29.861Z,9.77
2023-03-21T18:15:52.988Z,9.13
2023-03-21T18:19:16.467Z,10.80
2023-03-21T18:22:38.325Z,5.80
2023-03-21T18:26:00.707Z,9.52
2023-03-21T18:33:05.021Z,8.45
2023-03-21T18:36:29.142Z,6.18
2023-03-21T18:39:50.773Z,4.82
2023-03-21T18:44:00.453Z,4.35
2023-03-21T18:46:54.788Z,5.90
2023-03-21T18:50:16.801Z,2.47
2023-03-21T18:53:40.248Z,2.55
2023-03-21T19:00:44.825Z,2.33
2023-03-21T19:04:20.788Z,3.85
2023-03-21T19:07:44.743Z,5.05
2023-03-21T19:11:09.282Z,3.30
2023-03-21T19:14:31.232Z,2.40
2023-03-21T19:21:36.958Z,2.08
2023-03-21T19:24:58.980Z,2.35
2023-03-21T19:28:21.971Z,1.80
2023-03-21T19:31:45.878Z,1.90
2023-03-21T19:35:08.137Z,2.22
2023-03-21T19:38:30.060Z,2.25
2023-03-21T19:41:55.345Z,1.73
2023-03-21T19:45:25.065Z,2.00
2023-03-21T19:48:47.816Z,1.52
2023-03-21T19:52:10.151Z,1.80
2023-03-21T19:55:32.436Z,2.78
2023-03-21T19:58:54.224Z,2.50
2023-03-21T20:02:34.676Z,2.58
2023-03-21T20:06:04.291Z,2.47
2023-03-21T20:09:53.795Z,1.90
2023-03-21T20:13:08.239Z,2.25
2023-03-21T20:16:34.757Z,2.40
2023-03-21T20:20:00.102Z,1.85
2023-03-21T20:23:22.531Z,1.77
2023-03-21T20:26:45.263Z,2.22
2023-03-21T20:30:10.732Z,2.20
2023-03-21T20:33:33.567Z,3.20
2023-03-21T20:36:58.176Z,2.40
2023-03-21T20:40:21.728Z,2.28
2023-03-21T20:44:39.251Z,2.40
2023-03-21T20:47:25.484Z,2.95
2023-03-21T20:50:47.272Z,2.08
2023-03-21T20:54:11.342Z,2.55
2023-03-21T20:57:34.268Z,4.13
2023-03-21T21:00:59.450Z,2.13
2023-03-21T21:04:22.836Z,3.55
2023-03-21T21:07:46.154Z,2.70
2023-03-21T21:12:02.541Z,3.30
2023-03-21T21:14:51.252Z,2.90
2023-03-21T21:18:13.526Z,3.30
2023-03-21T21:21:35.386Z,2.70
2023-03-21T21:24:57.205Z,2.17
2023-03-21T21:28:21.384Z,2.40
2023-03-21T21:31:44.595Z,2.22
2023-03-21T21:35:09.981Z,2.60
2023-03-21T21:38:34.851Z,2.08
2023-03-21T21:41:56.749Z,1.75
2023-03-21T21:45:20.282Z,1.73
2023-03-21T21:48:42.755Z,1.73
2023-03-21T21:52:06.165Z,2.35
2023-03-21T21:55:27.897Z,2.00
2023-03-21T21:58:53.362Z,2.28
2023-03-21T22:02:17.062Z,2.15
2023-03-21T22:05:39.449Z,1.88
2023-03-21T22:09:01.201Z,2.47
2023-03-21T22:12:23.243Z,2.40
2023-03-21T22:15:46.952Z,2.00
2023-03-21T22:19:10.520Z,2.65
2023-03-21T22:22:32.158Z,2.70
2023-03-21T22:25:54.314Z,2.20
2023-03-21T22:29:16.298Z,2.22
2023-03-21T22:32:39.759Z,2.22
2023-03-21T22:36:03.041Z,2.53
2023-03-21T22:39:26.533Z,2.00
2023-03-21T22:42:48.373Z,2.47
2023-03-21T22:46:10.494Z,1.90
2023-03-21T22:49:33.076Z,2.10
2023-03-21T22:52:56.592Z,2.95
2023-03-21T22:56:19.173Z,2.28
2023-03-21T22:59:41.295Z,2.42
2023-03-21T23:03:03.465Z,1.80
2023-03-21T23:06:25.389Z,1.95
2023-03-21T23:09:48.847Z,1.45
2023-03-21T23:13:11.525Z,1.60
2023-03-21T23:16:34.901Z,2.00
2023-03-21T23:19:56.517Z,1.48
2023-03-21T23:23:18.389Z,1.85
2023-03-21T23:26:41.637Z,1.60
2023-03-21T23:30:05.064Z,1.73
2023-03-21T23:33:27.148Z,2.22
2023-03-21T23:36:48.717Z,1.83
2023-03-21T23:40:12.695Z,2.05
2023-03-21T23:43:36.363Z,2.38
2023-03-21T23:46:58.438Z,2.65
2023-03-21T23:50:20.338Z,1.65
2023-03-21T23:53:42.506Z,1.83
2023-03-21T23:57:04.739Z,1.80
